createdAt,value
2019-01-02T00:00:56.488Z,4.61
2019-01-02T00:03:26.439Z,4.59
2019-01-02T00:05:56.181Z,4.58
2019-01-02T00:08:25.459Z,4.53
2019-01-02T00:10:55.028Z,4.48
2019-01-02T00:13:24.515Z,4.44
2019-01-02T00:15:53.732Z,4.46
2019-01-02T00:18:23.779Z,4.45
2019-01-02T00:20:54.082Z,4.44
2019-01-02T00:23:23.851Z,4.51
2019-01-02T00:25:53.077Z,4.56
2019-01-02T00:28:23.263Z,4.56
2019-01-02T00:30:53.780Z,4.55
2019-01-02T00:33:23.692Z,4.49
2019-01-02T00:35:54.884Z,4.47
2019-01-02T00:38:24.678Z,4.44
2019-01-02T00:41:07.596Z,4.39
2019-01-02T00:43:37.238Z,4.42
2019-01-02T00:46:08.729Z,4.44
2019-01-02T00:48:38.227Z,4.42
2019-01-02T00:51:07.680Z,4.36
2019-01-02T00:53:36.920Z,4.30
2019-01-02T00:56:06.664Z,4.28
2019-01-02T00:58:36.457Z,4.31
2019-01-02T01:01:05.949Z,4.38
2019-01-02T01:03:35.171Z,4.50
2019-01-02T01:06:06.735Z,4.58
2019-01-02T01:08:35.970Z,4.57
2019-01-02T01:11:06.915Z,4.56
2019-01-02T01:13:36.129Z,4.53
2019-01-02T01:16:07.056Z,4.46
2019-01-02T01:18:36.569Z,4.46
2019-01-02T01:21:06.044Z,4.42
2019-01-02T01:23:36.168Z,4.43
2019-01-02T01:26:05.925Z,4.42
2019-01-02T01:28:35.583Z,4.42
2019-01-02T01:31:04.783Z,4.39
2019-01-02T01:33:34.357Z,4.38
2019-01-02T01:36:04.125Z,4.39
2019-01-02T01:38:34.039Z,4.40
2019-01-02T01:41:03.972Z,4.43
2019-01-02T01:43:33.864Z,4.42
2019-01-02T01:46:03.331Z,4.43
2019-01-02T01:48:33.088Z,4.45
2019-01-02T01:51:02.605Z,4.47
2019-01-02T01:53:33.487Z,4.43
2019-01-02T01:56:03.562Z,4.43
2019-01-02T01:58:33.658Z,4.43
2019-01-02T02:03:53.094Z,4.48
2019-01-02T02:06:22.566Z,4.46
2019-01-02T02:08:52.081Z,4.50
2019-01-02T02:11:21.880Z,4.53
2019-01-02T02:13:51.386Z,4.52
2019-01-02T02:16:22.568Z,4.47
2019-01-02T02:18:52.078Z,4.43
2019-01-02T02:21:21.284Z,4.42
2019-01-02T02:23:50.798Z,4.40
2019-01-02T02:26:20.279Z,4.41
2019-01-02T02:28:50.491Z,4.40
2019-01-02T02:31:19.976Z,4.35
2019-01-02T02:33:49.377Z,4.37
2019-01-02T02:36:39.282Z,4.34
2019-01-02T02:39:10.684Z,4.38
2019-01-02T02:42:00.673Z,4.36
2019-01-02T02:44:31.904Z,4.35
2019-01-02T02:47:01.793Z,4.27
2019-01-02T02:49:31.939Z,4.19
2019-01-02T02:52:01.151Z,4.17
2019-01-02T02:54:30.385Z,4.11
2019-01-02T02:59:51.149Z,3.94
2019-01-02T03:02:20.342Z,3.94
2019-01-02T03:04:50.140Z,3.98
2019-01-02T03:07:19.974Z,3.96
2019-01-02T03:09:49.511Z,3.97
2019-01-02T03:12:20.438Z,4.00
2019-01-02T03:14:49.934Z,4.03
2019-01-02T03:17:19.120Z,4.04
2019-01-02T03:19:49.211Z,4.04
2019-01-02T03:22:20.141Z,4.05
2019-01-02T03:24:51.434Z,4.08
2019-01-02T03:27:22.609Z,4.10
2019-01-02T03:29:52.682Z,4.07
2019-01-02T03:32:22.174Z,4.08
2019-01-02T03:34:51.933Z,4.08
2019-01-02T03:37:21.401Z,4.09
2019-01-02T03:39:50.621Z,4.13
2019-01-02T03:42:19.864Z,4.11
2019-01-02T03:44:49.548Z,4.16
2019-01-02T03:47:19.031Z,4.14
2019-01-02T03:49:48.897Z,4.17
2019-01-02T03:52:18.383Z,4.20
2019-01-02T03:54:47.582Z,4.22
2019-01-02T03:57:17.060Z,4.23
2019-01-02T03:59:46.526Z,4.24
2019-01-02T04:02:16.100Z,4.24
2019-01-02T04:04:45.659Z,4.26
2019-01-02T04:07:14.883Z,4.29
2019-01-02T04:09:44.078Z,4.28
2019-01-02T04:12:13.574Z,4.30
2019-01-02T04:14:43.057Z,4.34
2019-01-02T04:17:13.074Z,4.33
2019-01-02T04:19:43.323Z,4.33
2019-01-02T04:22:12.820Z,4.36
2019-01-02T04:24:42.661Z,4.41
2019-01-02T04:27:12.422Z,4.43
2019-01-02T04:29:41.635Z,4.42
2019-01-02T04:32:11.099Z,4.46
2019-01-02T04:34:40.554Z,4.43
2019-01-02T04:40:05.905Z,4.50
2019-01-02T04:42:35.405Z,4.51
2019-01-02T04:45:05.283Z,4.54
2019-01-02T04:47:34.538Z,4.57
2019-01-02T04:50:04.229Z,4.58
2019-01-02T04:52:33.476Z,4.60
2019-01-02T04:55:03.000Z,4.62
2019-01-02T05:00:29.214Z,4.60
2019-01-02T05:02:58.717Z,4.58
2019-01-02T05:05:28.618Z,4.58
2019-01-02T05:07:58.202Z,4.52
2019-01-02T05:10:27.648Z,4.46
2019-01-02T05:12:57.145Z,4.44
2019-01-02T05:15:26.326Z,4.46
2019-01-02T05:17:56.252Z,4.48
2019-01-02T05:20:25.736Z,4.49
2019-01-02T05:22:54.923Z,4.52
2019-01-02T05:25:24.420Z,4.54
2019-01-02T05:27:53.620Z,4.55
2019-01-02T05:30:23.111Z,4.53
2019-01-02T05:32:52.289Z,4.52
2019-01-02T05:35:22.112Z,4.51
2019-01-02T05:37:51.579Z,4.54
2019-01-02T05:40:23.334Z,4.54
2019-01-02T05:42:52.828Z,4.56
2019-01-02T05:45:23.117Z,4.58
2019-01-02T05:47:52.761Z,4.57
2019-01-02T05:50:22.239Z,4.56
2019-01-02T05:55:41.356Z,4.50
2019-01-02T05:58:10.837Z,4.52
2019-01-02T06:00:40.297Z,4.49
2019-01-02T06:03:10.057Z,4.43
2019-01-02T06:05:39.598Z,4.38
2019-01-02T06:08:08.796Z,4.32
2019-01-02T06:10:38.300Z,4.31
2019-01-02T06:13:08.042Z,4.24
2019-01-02T06:15:37.814Z,4.13
2019-01-02T06:18:07.549Z,4.02
2019-01-02T06:20:37.444Z,3.94
2019-01-02T06:23:07.302Z,3.90
2019-01-02T06:25:36.782Z,3.88
2019-01-02T06:28:06.014Z,3.90
2019-01-02T06:30:35.199Z,3.94
2019-01-02T06:33:04.409Z,3.93
2019-01-02T06:35:33.972Z,3.96
2019-01-02T06:38:03.195Z,3.99
2019-01-02T06:40:32.408Z,3.99
2019-01-02T06:43:02.209Z,4.00
2019-01-02T06:45:31.698Z,4.01
2019-01-02T06:48:01.263Z,3.96
2019-01-02T06:50:30.743Z,3.91
2019-01-02T06:53:00.236Z,3.85
2019-01-02T06:55:29.720Z,3.81
2019-01-02T06:57:58.973Z,3.80
2019-01-02T07:00:47.498Z,3.76
2019-01-02T07:03:17.335Z,3.77
2019-01-02T07:05:46.510Z,3.78
2019-01-02T07:08:16.128Z,3.87
2019-01-02T07:10:45.967Z,3.81
2019-01-02T07:13:16.360Z,3.73
2019-01-02T07:15:45.558Z,3.66
2019-01-02T07:18:15.435Z,3.64
2019-01-02T07:20:45.176Z,3.62
2019-01-02T07:23:14.678Z,3.63
2019-01-02T07:25:43.896Z,3.61
2019-01-02T07:28:13.380Z,3.60
2019-01-02T07:31:01.953Z,3.66
2019-01-02T07:33:41.329Z,3.65
2019-01-02T07:39:56.967Z,3.52
2019-01-02T07:42:37.777Z,3.48
2019-01-02T07:45:45.088Z,3.50
2019-01-02T07:57:04.670Z,3.76
2019-01-02T08:03:07.068Z,3.71
2019-01-02T08:06:14.345Z,3.69
2019-01-02T08:09:21.876Z,3.73
2019-01-02T08:12:14.686Z,3.78
2019-01-02T08:18:01.359Z,3.94
2019-01-02T08:21:08.638Z,4.01
2019-01-02T08:24:15.869Z,4.08
2019-01-02T08:27:23.173Z,4.16
2019-01-02T08:30:30.437Z,4.28
2019-01-02T08:33:37.958Z,4.30
2019-01-02T08:36:45.568Z,4.37
2019-01-02T08:39:53.169Z,4.43
2019-01-02T08:51:33.218Z,4.49
2019-01-02T08:54:40.793Z,4.52
2019-01-02T08:57:36.261Z,4.55
2019-01-02T09:00:43.505Z,4.50
2019-01-02T09:03:50.762Z,4.51
2019-01-02T09:06:58.023Z,4.45
2019-01-02T09:10:05.565Z,4.43
2019-01-02T09:13:03.525Z,4.42
2019-01-02T09:16:11.065Z,4.41
2019-01-02T09:19:18.593Z,4.43
2019-01-02T09:22:26.096Z,4.45
2019-01-02T09:25:33.377Z,4.48
2019-01-02T09:28:35.004Z,4.52
2019-01-02T09:31:42.556Z,4.55
2019-01-02T09:34:50.128Z,4.60
2019-01-02T09:37:57.631Z,4.67
2019-01-02T09:40:48.966Z,4.71
2019-01-02T09:43:42.051Z,4.75
2019-01-02T09:46:36.478Z,4.73
2019-01-02T09:49:33.565Z,4.71
2019-01-02T09:52:30.082Z,4.69
2019-01-02T09:55:37.333Z,4.70
2019-01-02T09:58:44.878Z,4.69
2019-01-02T10:01:46.804Z,4.71
2019-01-02T10:04:54.065Z,4.74
2019-01-02T10:07:59.339Z,4.74
2019-01-02T10:14:02.212Z,4.82
2019-01-02T10:17:09.781Z,4.80
2019-01-02T10:20:17.580Z,4.90
2019-01-02T10:23:24.896Z,4.92
2019-01-02T10:26:22.495Z,4.99
2019-01-02T10:29:29.997Z,5.05
2019-01-02T10:32:37.563Z,5.13
2019-01-02T10:35:44.820Z,5.12
2019-01-02T10:38:52.080Z,5.12
2019-01-02T10:41:49.444Z,5.17
2019-01-02T10:44:56.940Z,5.15
2019-01-02T10:48:04.511Z,5.21
2019-01-02T10:51:12.006Z,5.26
2019-01-02T10:54:19.546Z,5.25
2019-01-02T10:57:27.115Z,5.18
2019-01-02T11:00:21.777Z,5.21
2019-01-02T11:03:29.318Z,5.27
2019-01-02T11:06:36.561Z,5.32
2019-01-02T11:09:43.809Z,5.17
2019-01-02T11:12:51.077Z,5.04
2019-01-02T11:15:58.866Z,5.11
2019-01-02T11:18:52.090Z,5.28
2019-01-02T11:21:59.697Z,5.38
2019-01-02T11:25:06.956Z,5.55
2019-01-02T11:28:14.541Z,5.68
2019-01-02T11:31:22.138Z,5.79
2019-01-02T11:34:20.716Z,5.80
2019-01-02T11:37:28.222Z,5.75
2019-01-02T11:40:35.799Z,5.74
2019-01-02T11:43:45.549Z,5.72
2019-01-02T11:46:14.701Z,5.62
2019-01-02T11:48:43.940Z,5.59
2019-01-02T11:51:13.382Z,5.63
2019-01-02T11:53:42.598Z,5.60
2019-01-02T11:56:11.809Z,5.61
2019-01-02T11:58:41.010Z,5.62
2019-01-02T12:01:10.223Z,5.72
2019-01-02T12:03:39.755Z,5.80
2019-01-02T12:06:08.977Z,5.78
2019-01-02T12:08:38.430Z,5.68
2019-01-02T12:11:08.688Z,5.63
2019-01-02T12:13:38.156Z,5.67
2019-01-02T12:16:07.383Z,5.60
2019-01-02T12:18:37.139Z,5.60
2019-01-02T12:21:06.631Z,5.59
2019-01-02T12:23:36.152Z,5.51
2019-01-02T12:26:08.567Z,5.42
2019-01-02T12:28:38.034Z,5.45
2019-01-02T12:31:07.305Z,5.49
2019-01-02T12:33:36.759Z,5.50
2019-01-02T12:36:06.512Z,5.34
2019-01-02T12:38:36.689Z,5.38
2019-01-02T12:41:06.300Z,5.48
2019-01-02T12:43:35.773Z,5.62
2019-01-02T12:46:05.303Z,5.76
2019-01-02T12:48:34.887Z,5.81
2019-01-02T12:51:04.372Z,5.84
2019-01-02T12:53:33.894Z,5.85
2019-01-02T12:56:03.487Z,5.77
2019-01-02T12:58:32.926Z,5.74
2019-01-02T13:01:46.249Z,5.81
2019-01-02T13:04:53.753Z,5.78
2019-01-02T13:08:01.017Z,5.65
2019-01-02T13:10:53.795Z,5.63
2019-01-02T13:14:01.333Z,5.71
2019-01-02T13:17:09.147Z,5.82
2019-01-02T13:20:02.785Z,5.73
2019-01-02T13:22:44.770Z,5.68
2019-01-02T13:25:52.330Z,5.64
2019-01-02T13:29:02.734Z,5.83
2019-01-02T13:32:10.293Z,6.00
2019-01-02T13:35:17.559Z,6.27
2019-01-02T13:38:25.113Z,6.42
2019-01-02T13:41:32.377Z,6.55
2019-01-02T13:44:18.335Z,6.55
2019-01-02T13:47:25.627Z,6.74
2019-01-02T13:50:16.955Z,6.48
2019-01-02T13:52:46.715Z,6.33
2019-01-02T13:55:18.990Z,6.18
2019-01-02T13:57:48.498Z,6.17
2019-01-02T14:00:17.683Z,6.08
2019-01-02T14:02:47.218Z,6.04
2019-01-02T14:05:19.968Z,6.17
2019-01-02T14:07:49.718Z,6.24
2019-01-02T14:10:19.213Z,6.07
2019-01-02T14:12:48.956Z,5.82
2019-01-02T14:15:18.435Z,5.53
2019-01-02T14:17:48.180Z,5.29
2019-01-02T14:20:17.928Z,5.21
2019-01-02T14:22:47.399Z,5.20
2019-01-02T14:25:16.603Z,4.98
2019-01-02T14:27:46.107Z,4.77
2019-01-02T14:30:15.344Z,4.65
2019-01-02T14:32:44.951Z,4.58
2019-01-02T14:35:14.191Z,4.57
2019-01-02T14:37:43.652Z,4.51
2019-01-02T14:40:13.465Z,4.55
2019-01-02T14:42:42.948Z,4.36
2019-01-02T14:45:12.453Z,4.64
2019-01-02T14:47:42.216Z,4.68
2019-01-02T14:50:11.691Z,4.79
2019-01-02T14:52:43.303Z,4.91
2019-01-02T14:55:13.254Z,4.99
2019-01-02T14:57:42.783Z,5.07
2019-01-02T15:00:14.020Z,5.12
2019-01-02T15:02:43.509Z,5.21
2019-01-02T15:05:13.113Z,5.28
2019-01-02T15:07:42.318Z,5.33
2019-01-02T15:10:13.656Z,5.33
2019-01-02T15:12:42.878Z,5.34
2019-01-02T15:15:12.534Z,5.31
2019-01-02T15:17:41.759Z,5.33
2019-01-02T15:20:12.166Z,5.27
2019-01-02T15:22:41.645Z,5.28
2019-01-02T15:25:11.162Z,5.23
2019-01-02T15:27:40.645Z,5.22
2019-01-02T15:30:12.507Z,5.22
2019-01-02T15:32:42.270Z,5.25
2019-01-02T15:35:11.564Z,5.28
2019-01-02T15:37:41.386Z,5.26
2019-01-02T15:40:11.824Z,5.23
2019-01-02T15:42:41.337Z,5.21
2019-01-02T15:45:10.934Z,5.22
2019-01-02T15:47:40.103Z,5.19
2019-01-02T15:50:11.118Z,5.18
2019-01-02T15:52:40.657Z,5.15
2019-01-02T15:55:10.182Z,5.11
2019-01-02T15:57:39.439Z,5.02
2019-01-02T16:00:11.440Z,5.01
2019-01-02T16:02:40.732Z,4.90
2019-01-02T16:05:09.949Z,4.85
2019-01-02T16:07:58.257Z,4.74
2019-01-02T16:10:46.769Z,4.66
2019-01-02T16:13:16.318Z,4.66
2019-01-02T16:15:45.621Z,4.58
2019-01-02T16:18:15.130Z,4.51
2019-01-02T16:20:44.907Z,4.44
2019-01-02T16:23:14.370Z,4.31
2019-01-02T16:25:43.827Z,4.23
2019-01-02T16:28:13.605Z,4.11
2019-01-02T16:30:42.793Z,4.05
2019-01-02T16:33:12.740Z,4.00
2019-01-02T16:35:42.217Z,3.98
2019-01-02T16:38:11.445Z,3.88
2019-01-02T16:40:40.941Z,3.84
2019-01-02T16:43:10.210Z,3.72
2019-01-02T16:45:39.679Z,3.64
2019-01-02T16:48:09.153Z,3.62
2019-01-02T16:50:39.018Z,3.46
2019-01-02T16:53:08.234Z,3.32
2019-01-02T16:55:37.463Z,3.25
2019-01-02T16:58:06.663Z,3.22
2019-01-02T17:00:36.139Z,3.23
2019-01-02T17:03:05.344Z,3.22
2019-01-02T17:05:34.811Z,3.14
2019-01-02T17:08:04.265Z,2.94
2019-01-02T17:10:33.481Z,2.83
2019-01-02T17:13:03.313Z,2.80
2019-01-02T17:15:32.531Z,2.71
2019-01-02T17:18:02.266Z,2.58
2019-01-02T17:20:31.746Z,2.54
2019-01-02T17:23:01.508Z,2.48
2019-01-02T17:25:31.269Z,2.59
2019-01-02T17:28:00.468Z,2.58
2019-01-02T17:30:30.226Z,2.59
2019-01-02T17:32:59.407Z,2.49
2019-01-02T17:38:03.506Z,2.17
2019-01-02T17:40:33.347Z,2.04
2019-01-02T17:43:02.541Z,2.03
2019-01-02T17:45:32.031Z,2.15
2019-01-02T17:48:01.788Z,2.13
2019-01-02T17:50:31.009Z,2.04
2019-01-02T17:53:00.465Z,2.14
2019-01-02T17:55:37.669Z,2.24
2019-01-02T17:58:06.882Z,2.27
2019-01-02T18:00:36.102Z,2.31
2019-01-02T18:03:05.305Z,2.19
2019-01-02T18:05:34.528Z,2.22
2019-01-02T18:08:03.710Z,2.28
2019-01-02T18:10:33.482Z,2.29
2019-01-02T18:13:03.261Z,2.27
2019-01-02T18:15:32.773Z,2.26
2019-01-02T18:18:02.594Z,2.29
2019-01-02T18:20:32.074Z,2.32
2019-01-02T18:23:02.516Z,2.31
2019-01-02T18:25:31.737Z,2.33
2019-01-02T18:28:00.928Z,2.31
2019-01-02T18:30:30.187Z,2.15
2019-01-02T18:32:59.658Z,2.13
2019-01-02T18:35:29.126Z,2.08
2019-01-02T18:37:58.577Z,2.04
2019-01-02T18:40:28.106Z,1.98
2019-01-02T18:42:57.607Z,1.92
2019-01-02T18:45:27.075Z,1.86
2019-01-02T18:47:56.283Z,1.76
2019-01-02T18:50:26.067Z,1.64
2019-01-02T18:52:55.394Z,1.60
2019-01-02T18:55:24.591Z,1.64
2019-01-02T18:57:54.455Z,1.59
2019-01-02T19:00:23.912Z,1.52
2019-01-02T19:02:53.393Z,1.42
2019-01-02T19:05:23.127Z,1.38
2019-01-02T19:07:52.902Z,1.27
2019-01-02T19:10:22.099Z,1.27
2019-01-02T19:12:51.570Z,1.30
2019-01-02T19:15:21.020Z,1.35
2019-01-02T19:17:50.789Z,1.29
2019-01-02T19:20:20.278Z,1.33
2019-01-02T19:22:49.541Z,1.33
2019-01-02T19:25:19.016Z,1.42
2019-01-02T19:27:48.849Z,1.40
2019-01-02T19:30:18.292Z,1.36
2019-01-02T19:32:48.061Z,1.41
2019-01-02T19:35:17.509Z,1.37
2019-01-02T19:38:05.776Z,1.40
2019-01-02T19:40:34.982Z,1.33
2019-01-02T19:43:04.738Z,1.27
2019-01-02T19:45:34.201Z,1.25
2019-01-02T19:48:03.988Z,1.25
2019-01-02T19:50:33.438Z,1.25
2019-01-02T19:53:03.219Z,1.15
2019-01-02T19:58:21.263Z,1.29
2019-01-02T20:00:50.450Z,1.29
2019-01-02T20:03:19.692Z,1.29
2019-01-02T20:05:49.287Z,1.41
2019-01-02T20:08:18.767Z,1.45
2019-01-02T20:10:48.229Z,1.44
2019-01-02T20:13:36.781Z,1.38
2019-01-02T20:16:06.256Z,1.42
2019-01-02T20:18:35.764Z,1.39
2019-01-02T20:21:04.960Z,1.43
2019-01-02T20:23:53.783Z,1.48
2019-01-02T20:26:23.250Z,1.53
2019-01-02T20:28:52.723Z,1.52
2019-01-02T20:31:22.442Z,1.59
2019-01-02T20:33:52.080Z,1.59
2019-01-02T20:36:40.846Z,1.63
2019-01-02T20:39:10.712Z,1.70
2019-01-02T20:41:40.319Z,1.62
2019-01-02T20:44:28.639Z,1.66
2019-01-02T20:46:58.475Z,1.66
2019-01-02T20:49:28.038Z,1.53
2019-01-02T20:52:16.627Z,1.61
2019-01-02T20:54:46.117Z,1.63
2019-01-02T20:57:15.866Z,1.64
2019-01-02T21:00:04.470Z,1.67
2019-01-02T21:02:33.695Z,1.70
2019-01-02T21:05:02.917Z,1.65
2019-01-02T21:07:32.478Z,1.69
2019-01-02T21:10:02.010Z,1.73
2019-01-02T21:12:31.495Z,1.78
2019-01-02T21:15:00.737Z,1.79
2019-01-02T21:17:29.995Z,1.81
2019-01-02T21:20:18.557Z,1.73
2019-01-02T21:22:48.013Z,1.80
2019-01-02T21:25:17.491Z,1.79
2019-01-02T21:27:47.004Z,1.72
2019-01-02T21:30:16.569Z,1.78
2019-01-02T21:32:45.832Z,1.71
2019-01-02T21:35:15.702Z,1.71
2019-01-02T21:37:45.267Z,1.62
2019-01-02T21:40:15.310Z,1.60
2019-01-02T21:42:44.825Z,1.60
2019-01-02T21:45:33.650Z,1.60
2019-01-02T21:48:03.121Z,1.55
2019-01-02T21:50:32.891Z,1.41
2019-01-02T21:53:02.078Z,1.39
2019-01-02T21:55:31.571Z,1.37
2019-01-02T21:58:01.967Z,1.34
2019-01-02T22:00:32.228Z,1.34
2019-01-02T22:03:01.698Z,1.31
2019-01-02T22:05:31.069Z,1.29
2019-01-02T22:08:00.254Z,1.29
2019-01-02T22:10:29.502Z,1.20
2019-01-02T22:12:59.032Z,1.19
2019-01-02T22:15:28.237Z,1.08
2019-01-02T22:17:57.485Z,1.07
2019-01-02T22:20:26.723Z,1.04
2019-01-02T22:23:15.556Z,1.00
2019-01-02T22:25:44.775Z,0.89
2019-01-02T22:28:13.986Z,0.82
2019-01-02T22:30:43.173Z,0.84
2019-01-02T22:33:12.712Z,0.82
2019-01-02T22:35:42.231Z,0.84
2019-01-02T22:38:11.834Z,0.83
2019-01-02T22:40:41.075Z,0.77
2019-01-02T22:43:10.423Z,0.79
2019-01-02T22:45:40.310Z,0.75
2019-01-02T22:48:09.584Z,0.80
2019-01-02T22:50:39.765Z,0.76
2019-01-02T22:53:09.528Z,0.73
2019-01-02T22:55:39.014Z,0.68
2019-01-02T22:58:08.927Z,0.72
2019-01-02T23:00:57.096Z,0.68
2019-01-02T23:04:04.594Z,0.65
2019-01-02T23:06:52.730Z,0.64
2019-01-02T23:09:41.146Z,0.56
2019-01-02T23:12:29.552Z,0.63
2019-01-02T23:15:17.694Z,0.58
2019-01-02T23:18:06.128Z,0.52
2019-01-02T23:20:54.262Z,0.49
2019-01-02T23:23:42.454Z,0.50
2019-01-02T23:26:30.850Z,0.58
2019-01-02T23:29:19.580Z,0.48
2019-01-02T23:34:58.532Z,0.51
2019-01-02T23:37:59.420Z,0.46
2019-01-02T23:40:43.687Z,0.48
2019-01-02T23:43:32.099Z,0.58
2019-01-02T23:46:21.162Z,0.67
2019-01-02T23:49:09.327Z,0.67
2019-01-02T23:51:57.454Z,0.65
2019-01-02T23:54:45.896Z,0.64
2019-01-02T23:57:34.020Z,0.65
